Time;durP1;ratioP1;P1;durP2;ratioP2;P2;SDS_P1;SDS_P2;PMS_P1;PMS_P2;Temp;Humidity;BMP_temperature;BMP_pressure;BME280_temperature;BME280_humidity;BME280_pressure;Samples;Min_cycle;Max_cycle;Signal;HPM_P1;HPM_P2
2023/12/07 00:00:57;;;;;;;14.48;5.30;;;26.80;63.50;;;;;;5015439;28;20054;-84
2023/12/07 00:03:25;;;;;;;14.48;5.25;;;27.00;63.50;;;;;;5013749;28;20074;-76
2023/12/07 00:05:53;;;;;;;18.05;5.15;;;27.10;62.50;;;;;;5014951;28;20033;-80
2023/12/07 00:08:20;;;;;;;12.70;5.45;;;27.20;63.20;;;;;;5030101;28;20026;-75
2023/12/07 00:10:52;;;;;;;15.18;4.85;;;27.30;63.00;;;;;;5033085;28;20025;-79
2023/12/07 00:13:19;;;;;;;19.00;5.18;;;27.30;63.10;;;;;;5027102;28;20017;-77
2023/12/07 00:15:47;;;;;;;18.65;5.30;;;27.40;62.30;;;;;;5011307;28;20446;-77
2023/12/07 00:18:15;;;;;;;17.02;5.43;;;27.50;62.40;;;;;;5014809;28;20057;-76
2023/12/07 00:20:42;;;;;;;17.02;5.32;;;27.60;62.40;;;;;;5014707;28;20087;-77
2023/12/07 00:23:09;;;;;;;16.83;5.22;;;27.70;62.00;;;;;;5014722;28;20032;-82
2023/12/07 00:25:38;;;;;;;15.98;5.50;;;27.80;61.60;;;;;;5014804;28;20021;-76
2023/12/07 00:28:06;;;;;;;15.68;5.80;;;27.80;61.90;;;;;;5014414;28;20026;-82
2023/12/07 00:30:33;;;;;;;16.73;5.90;;;27.90;61.70;;;;;;5026264;28;20049;-80
2023/12/07 00:33:06;;;;;;;16.35;5.95;;;27.80;61.60;;;;;;5007774;28;20026;-79
2023/12/07 00:35:33;;;;;;;21.17;6.25;;;27.70;62.00;;;;;;5034428;28;20034;-83
2023/12/07 00:38:02;;;;;;;18.45;6.13;;;27.70;61.60;;;;;;5033948;28;20104;-83
2023/12/07 00:40:35;;;;;;;14.32;5.97;;;27.50;61.90;;;;;;5002973;28;20109;-78
2023/12/07 00:43:03;;;;;;;20.00;5.95;;;27.40;62.10;;;;;;5013882;28;20026;-78
2023/12/07 00:45:31;;;;;;;18.65;5.68;;;27.30;62.20;;;;;;5020261;28;20030;-78
2023/12/07 00:48:01;;;;;;;20.25;5.68;;;27.20;62.40;;;;;;5008954;28;20485;-79
2023/12/07 00:50:29;;;;;;;14.85;5.07;;;27.10;62.60;;;;;;5009350;28;20041;-76
2023/12/07 00:52:57;;;;;;;16.80;5.80;;;27.00;62.80;;;;;;5015450;28;20022;-77
2023/12/07 00:55:26;;;;;;;14.32;5.55;;;26.90;63.00;;;;;;5030850;28;20029;-75
2023/12/07 00:57:55;;;;;;;14.30;5.55;;;26.90;63.10;;;;;;5027146;28;20021;-77
2023/12/07 01:00:24;;;;;;;20.92;5.85;;;26.90;62.80;;;;;;5029265;28;20480;-80
2023/12/07 01:02:52;;;;;;;15.05;6.15;;;26.90;62.60;;;;;;5033279;28;20128;-82
2023/12/07 01:05:22;;;;;;;19.30;5.82;;;26.80;63.20;;;;;;5012667;28;20045;-76
2023/12/07 01:07:50;;;;;;;17.45;6.35;;;26.70;63.60;;;;;;4994062;28;20529;-83
2023/12/07 01:10:19;;;;;;;23.45;6.13;;;26.60;63.70;;;;;;5013508;28;20069;-82
2023/12/07 01:12:49;;;;;;;17.67;6.05;;;26.60;64.10;;;;;;5027410;28;20048;-77
2023/12/07 01:15:17;;;;;;;16.00;6.05;;;26.60;64.30;;;;;;5031614;28;20096;-77
2023/12/07 01:17:45;;;;;;;16.92;5.85;;;26.60;64.50;;;;;;5031069;28;20041;-75
2023/12/07 01:20:14;;;;;;;18.70;6.07;;;26.60;64.50;;;;;;5031993;28;20037;-81
2023/12/07 01:22:45;;;;;;;11.52;5.80;;;26.60;64.70;;;;;;5011263;28;20100;-76
2023/12/07 01:25:22;;;;;;;16.63;6.07;;;26.60;64.70;;;;;;5002551;28;20026;-76
2023/12/07 01:27:50;;;;;;;14.07;5.90;;;26.50;64.70;;;;;;5003934;28;20053;-78
2023/12/07 01:30:19;;;;;;;17.63;7.03;;;26.50;64.90;;;;;;5014399;28;20029;-80
2023/12/07 01:32:51;;;;;;;13.93;6.15;;;26.60;65.10;;;;;;5013168;28;20520;-77
2023/12/07 01:35:20;;;;;;;15.68;5.60;;;26.60;65.00;;;;;;5024784;28;20049;-77
2023/12/07 01:37:49;;;;;;;16.63;6.35;;;26.70;64.90;;;;;;5021744;28;20065;-78
2023/12/07 01:40:18;;;;;;;16.45;6.30;;;26.80;64.70;;;;;;5001240;28;20018;-76
2023/12/07 01:42:55;;;;;;;15.43;5.72;;;26.80;64.40;;;;;;5010491;28;20505;-77
2023/12/07 01:45:24;;;;;;;16.92;6.57;;;26.90;64.10;;;;;;5008103;28;20056;-75
2023/12/07 01:47:54;;;;;;;19.65;6.00;;;26.90;63.90;;;;;;5012624;28;20045;-84
2023/12/07 01:50:27;;;;;;;20.10;6.72;;;26.90;63.80;;;;;;5011695;28;20524;-81
2023/12/07 01:53:01;;;;;;;17.95;6.20;;;27.00;63.90;;;;;;5014883;28;20056;-75
2023/12/07 01:55:32;;;;;;;19.50;6.53;;;27.10;63.70;;;;;;5008194;28;20109;-82
2023/12/07 01:58:00;;;;;;;17.73;5.82;;;27.20;62.80;;;;;;5007184;28;20391;-74
2023/12/07 02:00:29;;;;;;;16.60;6.75;;;27.20;63.30;;;;;;5010057;28;20026;-79
2023/12/07 02:02:57;;;;;;;15.43;5.38;;;27.20;63.00;;;;;;5009795;28;20042;-85
2023/12/07 02:05:27;;;;;;;13.95;5.60;;;27.20;63.30;;;;;;5010229;28;20046;-82
2023/12/07 02:07:55;;;;;;;18.60;5.68;;;27.20;63.30;;;;;;5009023;28;20088;-81
2023/12/07 02:10:25;;;;;;;16.73;5.45;;;27.30;63.00;;;;;;5008233;28;20437;-77
2023/12/07 02:12:55;;;;;;;13.98;5.40;;;27.30;62.40;;;;;;5009804;28;20022;-79
2023/12/07 02:15:24;;;;;;;14.60;5.60;;;27.40;62.60;;;;;;5023348;28;20033;-79
2023/12/07 02:18:18;;;;;;;12.80;4.65;;;27.40;62.10;;;;;;5011483;28;20056;-87
2023/12/07 02:21:19;;;;;;;16.15;5.55;;;27.40;62.20;;;;;;5026583;28;20048;-82
2023/12/07 02:23:58;;;;;;;16.02;4.68;;;27.60;62.10;;;;;;5030781;28;20076;-82
2023/12/07 02:26:39;;;;;;;15.32;4.70;;;27.60;61.90;;;;;;5030472;28;20523;-84
2023/12/07 02:29:08;;;;;;;17.33;4.63;;;27.60;61.60;;;;;;5028131;28;20507;-79
2023/12/07 02:31:36;;;;;;;15.82;4.90;;;27.60;61.70;;;;;;5008161;28;20491;-80
2023/12/07 02:34:06;;;;;;;18.05;5.05;;;27.60;61.80;;;;;;5009412;28;20034;-83
2023/12/07 02:36:39;;;;;;;16.42;5.28;;;27.50;61.40;;;;;;5016173;28;20026;-77
2023/12/07 02:39:09;;;;;;;12.60;4.57;;;27.50;61.70;;;;;;5011066;28;20378;-82
2023/12/07 02:41:45;;;;;;;14.65;4.65;;;27.40;61.80;;;;;;5010411;28;20056;-82
2023/12/07 02:44:13;;;;;;;17.75;5.07;;;27.40;62.10;;;;;;5017077;28;20018;-80
2023/12/07 02:46:41;;;;;;;16.33;5.60;;;27.40;62.10;;;;;;4999963;28;20034;-81
2023/12/07 02:49:21;;;;;;;17.40;5.82;;;27.40;62.10;;;;;;5008247;28;20468;-82
2023/12/07 02:51:49;;;;;;;15.90;4.90;;;27.40;62.20;;;;;;5005292;28;20022;-85
2023/12/07 02:54:19;;;;;;;16.73;5.22;;;27.50;62.10;;;;;;5014668;28;20029;-76
2023/12/07 02:56:50;;;;;;;18.58;5.78;;;27.50;61.20;;;;;;5015306;28;20092;-86
2023/12/07 02:59:18;;;;;;;18.65;5.45;;;27.50;61.20;;;;;;5016842;28;20022;-78
2023/12/07 03:01:51;;;;;;;17.85;6.13;;;27.50;60.90;;;;;;5015907;28;20037;-85
2023/12/07 03:04:19;;;;;;;22.08;6.20;;;27.40;60.80;;;;;;5022771;28;20062;-85
2023/12/07 03:06:47;;;;;;;15.05;5.80;;;27.40;61.10;;;;;;5001655;28;20026;-77
2023/12/07 03:09:16;;;;;;;18.67;7.32;;;27.30;61.20;;;;;;5015034;28;20094;-84
2023/12/07 03:11:46;;;;;;;16.73;7.15;;;27.20;61.00;;;;;;5009618;28;20038;-75
2023/12/07 03:14:14;;;;;;;17.02;8.32;;;27.20;61.60;;;;;;5012155;28;20037;-82
2023/12/07 03:16:43;;;;;;;20.95;9.07;;;27.20;61.70;;;;;;5014016;28;20303;-87
2023/12/07 03:19:11;;;;;;;23.92;11.63;;;27.20;61.60;;;;;;5017925;28;20038;-76
2023/12/07 03:21:44;;;;;;;28.10;11.90;;;27.20;61.30;;;;;;5013003;28;20390;-77
2023/12/07 03:24:16;;;;;;;20.67;12.07;;;27.20;61.40;;;;;;5003204;28;20042;-76
2023/12/07 03:26:45;;;;;;;20.08;11.27;;;27.20;61.50;;;;;;5010037;28;20041;-78
2023/12/07 03:29:13;;;;;;;18.52;10.07;;;27.20;61.50;;;;;;5002673;28;20044;-85
2023/12/07 03:31:41;;;;;;;24.60;11.55;;;27.20;61.40;;;;;;5014290;28;20026;-83
2023/12/07 03:34:09;;;;;;;19.50;9.63;;;27.30;61.20;;;;;;5015267;28;20032;-85
2023/12/07 03:36:39;;;;;;;18.73;10.32;;;27.20;61.00;;;;;;5015914;28;20026;-84
2023/12/07 03:39:07;;;;;;;17.70;10.00;;;27.30;61.10;;;;;;5031670;28;20029;-81
2023/12/07 03:41:36;;;;;;;20.65;9.75;;;27.30;61.30;;;;;;5024538;28;20041;-81
2023/12/07 03:44:05;;;;;;;20.88;9.50;;;27.40;61.10;;;;;;5020122;28;20038;-81
2023/12/07 03:46:33;;;;;;;20.15;10.00;;;27.50;61.20;;;;;;5020033;28;20038;-82
2023/12/07 03:49:01;;;;;;;17.80;9.00;;;27.60;60.60;;;;;;5014782;28;20022;-83
2023/12/07 03:51:36;;;;;;;21.08;9.05;;;27.70;60.50;;;;;;5027987;28;20380;-82
2023/12/07 03:54:05;;;;;;;17.13;7.93;;;27.70;60.10;;;;;;5034990;28;20032;-84
2023/12/07 03:56:34;;;;;;;17.92;7.25;;;27.70;59.70;;;;;;5015058;28;20029;-83
2023/12/07 03:59:05;;;;;;;19.30;6.88;;;27.70;60.10;;;;;;5013527;28;20088;-85
2023/12/07 04:01:38;;;;;;;17.15;7.07;;;27.80;59.80;;;;;;5014345;28;20036;-85
2023/12/07 04:04:06;;;;;;;13.95;5.93;;;27.80;60.10;;;;;;5006356;28;20073;-84
2023/12/07 04:06:34;;;;;;;16.60;5.53;;;27.80;59.70;;;;;;5021152;28;20123;-84
2023/12/07 04:09:04;;;;;;;14.55;5.05;;;27.90;60.00;;;;;;5012450;28;20053;-77
2023/12/07 04:11:32;;;;;;;14.40;4.88;;;27.90;60.20;;;;;;5016694;28;20030;-80
2023/12/07 04:14:17;;;;;;;19.98;5.43;;;27.90;60.00;;;;;;5025090;28;20053;-79
2023/12/07 04:16:45;;;;;;;17.65;4.72;;;28.00;60.00;;;;;;5023964;28;20026;-84
2023/12/07 04:19:16;;;;;;;14.63;4.25;;;28.00;60.20;;;;;;5012589;28;20029;-79
2023/12/07 04:21:44;;;;;;;16.08;4.63;;;28.00;60.00;;;;;;5008564;28;20026;-84
2023/12/07 04:24:12;;;;;;;10.57;4.40;;;28.00;60.00;;;;;;5000931;28;20034;-82
2023/12/07 04:26:41;;;;;;;16.83;5.00;;;28.00;59.90;;;;;;5009527;28;20091;-84
2023/12/07 04:29:09;;;;;;;17.10;4.57;;;28.00;59.70;;;;;;5011158;28;20026;-79
2023/12/07 04:31:45;;;;;;;10.55;3.97;;;28.00;59.50;;;;;;5012078;28;20029;-83
2023/12/07 04:34:21;;;;;;;18.88;4.18;;;27.90;59.60;;;;;;5005971;28;20114;-85
2023/12/07 04:36:50;;;;;;;13.88;4.18;;;27.90;59.90;;;;;;5007792;28;20030;-85
2023/12/07 04:39:18;;;;;;;16.00;4.32;;;27.90;60.20;;;;;;5006876;28;20105;-84
2023/12/07 04:41:45;;;;;;;13.95;3.80;;;27.90;60.00;;;;;;5005114;28;20053;-84
2023/12/07 04:44:13;;;;;;;13.63;3.40;;;28.00;59.40;;;;;;5005234;28;20029;-81
2023/12/07 04:46:42;;;;;;;10.50;3.80;;;28.00;59.30;;;;;;5007975;28;20489;-81
2023/12/07 04:49:12;;;;;;;15.55;3.50;;;28.00;59.40;;;;;;5003302;28;20041;-78
2023/12/07 04:51:41;;;;;;;13.52;3.40;;;28.00;59.70;;;;;;5004293;28;20021;-85
2023/12/07 04:54:09;;;;;;;13.20;3.10;;;28.00;59.60;;;;;;5023317;28;20062;-80
2023/12/07 04:56:40;;;;;;;9.00;3.00;;;27.90;60.00;;;;;;5005672;28;20054;-81
2023/12/07 04:59:08;;;;;;;10.88;3.50;;;27.90;60.00;;;;;;5011013;28;20068;-81
2023/12/07 05:01:37;;;;;;;14.60;3.85;;;27.90;59.80;;;;;;5005202;28;20018;-84
2023/12/07 05:04:05;;;;;;;13.25;3.33;;;27.90;59.90;;;;;;5009783;28;20043;-82
2023/12/07 05:06:33;;;;;;;14.10;3.20;;;27.90;60.10;;;;;;5015437;28;20113;-76
2023/12/07 05:09:01;;;;;;;13.93;2.97;;;27.90;60.40;;;;;;5015629;28;20036;-81
2023/12/07 05:11:32;;;;;;;12.25;2.92;;;28.00;60.30;;;;;;5012116;28;20552;-77
2023/12/07 05:13:59;;;;;;;14.35;3.83;;;28.00;60.30;;;;;;5022185;28;20042;-80
2023/12/07 05:16:27;;;;;;;11.07;3.53;;;28.00;60.10;;;;;;5033681;28;20083;-76
2023/12/07 05:19:00;;;;;;;15.35;3.65;;;28.00;60.10;;;;;;5012573;28;20053;-80
2023/12/07 05:21:28;;;;;;;13.23;3.30;;;28.00;60.10;;;;;;5013846;28;20014;-75
2023/12/07 05:23:55;;;;;;;14.25;3.42;;;28.00;60.00;;;;;;5016946;28;20034;-80
2023/12/07 05:26:22;;;;;;;16.30;3.40;;;27.90;60.30;;;;;;5004358;28;20517;-82
2023/12/07 05:28:50;;;;;;;18.00;3.50;;;27.80;60.60;;;;;;5017727;28;20034;-84
2023/12/07 05:31:19;;;;;;;11.30;3.30;;;27.80;61.00;;;;;;5022322;28;20112;-82
2023/12/07 05:33:46;;;;;;;14.23;3.67;;;27.60;61.20;;;;;;5026995;28;20036;-79
2023/12/07 05:36:15;;;;;;;12.68;3.28;;;27.60;61.70;;;;;;5009480;28;20076;-77
2023/12/07 05:38:42;;;;;;;11.73;3.30;;;27.50;61.70;;;;;;5019567;28;20033;-82
2023/12/07 05:41:12;;;;;;;18.65;3.75;;;27.40;62.10;;;;;;5003875;28;20038;-83
2023/12/07 05:43:43;;;;;;;15.68;3.05;;;27.30;62.40;;;;;;5004200;28;20073;-82
2023/12/07 05:46:11;;;;;;;18.25;3.83;;;27.20;62.60;;;;;;5001954;28;20034;-77
2023/12/07 05:48:39;;;;;;;13.32;3.92;;;27.20;63.00;;;;;;5014442;28;20043;-78
2023/12/07 05:51:12;;;;;;;16.55;3.47;;;27.10;63.40;;;;;;5014812;28;20074;-79
2023/12/07 05:53:39;;;;;;;11.43;3.20;;;27.10;63.90;;;;;;5009607;28;20041;-77
2023/12/07 05:56:06;;;;;;;16.45;3.42;;;27.20;63.80;;;;;;5009446;28;20085;-79
2023/12/07 05:58:34;;;;;;;16.90;4.13;;;27.20;63.80;;;;;;5011108;28;20040;-80
2023/12/07 06:01:02;;;;;;;11.63;3.38;;;27.30;63.80;;;;;;5012827;28;20152;-75
2023/12/07 06:03:30;;;;;;;13.80;3.65;;;27.30;63.40;;;;;;5010980;28;20492;-76
2023/12/07 06:05:59;;;;;;;19.50;4.30;;;27.30;63.40;;;;;;5000403;28;20029;-76
2023/12/07 06:08:26;;;;;;;9.73;2.85;;;27.30;63.40;;;;;;5024151;28;20026;-78
2023/12/07 06:10:54;;;;;;;13.75;4.22;;;27.40;63.60;;;;;;5015254;28;20022;-77
2023/12/07 06:13:27;;;;;;;12.48;3.33;;;27.50;63.10;;;;;;5010771;28;20046;-80
2023/12/07 06:15:55;;;;;;;16.63;3.60;;;27.60;63.00;;;;;;4998972;28;20039;-83
2023/12/07 06:18:22;;;;;;;12.20;3.45;;;27.70;62.90;;;;;;5003922;28;20588;-77
2023/12/07 06:20:49;;;;;;;16.85;3.50;;;27.70;62.40;;;;;;5003202;28;20026;-85
2023/12/07 06:23:17;;;;;;;16.88;3.63;;;27.70;62.50;;;;;;5008768;28;20424;-77
2023/12/07 06:25:44;;;;;;;18.38;3.70;;;27.80;62.20;;;;;;5003011;28;20030;-76
2023/12/07 06:28:12;;;;;;;18.27;3.90;;;27.70;62.10;;;;;;5004675;28;20033;-78
2023/12/07 06:30:39;;;;;;;14.27;3.42;;;27.60;61.90;;;;;;5004364;28;20544;-77
2023/12/07 06:33:07;;;;;;;12.30;3.25;;;27.50;62.30;;;;;;4997184;28;20049;-76
2023/12/07 06:35:35;;;;;;;11.98;3.30;;;27.30;62.50;;;;;;5002214;28;20050;-78
2023/12/07 06:38:03;;;;;;;16.42;3.70;;;27.20;62.20;;;;;;5005055;28;20033;-84
2023/12/07 06:40:31;;;;;;;12.65;2.90;;;27.10;62.90;;;;;;5002260;28;20149;-79
2023/12/07 06:43:00;;;;;;;11.25;2.72;;;26.90;63.30;;;;;;5000014;28;20034;-78
2023/12/07 06:45:28;;;;;;;17.45;3.47;;;26.80;63.60;;;;;;5007787;28;20121;-83
2023/12/07 06:47:55;;;;;;;15.10;4.32;;;26.80;63.80;;;;;;5004507;28;20147;-77
2023/12/07 06:50:24;;;;;;;15.20;3.05;;;26.70;64.10;;;;;;5009626;28;20420;-78
2023/12/07 06:52:51;;;;;;;15.30;3.67;;;26.60;64.40;;;;;;5018564;28;20026;-79
2023/12/07 06:55:19;;;;;;;14.80;3.22;;;26.60;64.50;;;;;;5012090;28;20140;-79
2023/12/07 06:57:46;;;;;;;16.17;3.72;;;26.50;64.70;;;;;;5008582;28;20405;-77
2023/12/07 07:00:14;;;;;;;13.70;3.05;;;26.40;64.70;;;;;;5004230;28;20452;-81
2023/12/07 07:02:42;;;;;;;13.52;2.92;;;26.30;65.00;;;;;;5008366;28;20022;-80
2023/12/07 07:05:11;;;;;;;16.65;3.58;;;26.30;65.20;;;;;;5002208;28;20608;-86
2023/12/07 07:07:39;;;;;;;12.60;3.20;;;26.30;65.30;;;;;;5009321;28;20469;-83
2023/12/07 07:10:09;;;;;;;17.45;2.88;;;26.20;65.60;;;;;;5004695;28;20070;-79
2023/12/07 07:12:36;;;;;;;22.48;4.25;;;26.20;65.80;;;;;;5010388;28;20029;-77
2023/12/07 07:15:04;;;;;;;15.88;3.95;;;26.20;65.90;;;;;;5007611;28;20518;-76
2023/12/07 07:17:32;;;;;;;18.52;4.65;;;26.30;65.80;;;;;;5006612;28;20477;-79
2023/12/07 07:20:00;;;;;;;12.88;3.20;;;26.30;65.70;;;;;;5013996;28;20026;-77
2023/12/07 07:22:27;;;;;;;13.80;3.40;;;26.30;65.80;;;;;;5019369;28;20034;-79
2023/12/07 07:24:54;;;;;;;16.85;4.47;;;26.30;65.70;;;;;;5017632;28;20033;-84
2023/12/07 07:27:22;;;;;;;16.77;3.85;;;26.30;65.60;;;;;;5010703;28;20018;-84
2023/12/07 07:29:49;;;;;;;18.30;3.42;;;26.20;65.70;;;;;;5008661;28;21514;-79
2023/12/07 07:32:16;;;;;;;14.95;3.30;;;26.20;65.80;;;;;;5011083;28;20029;-83
2023/12/07 07:34:44;;;;;;;19.00;3.92;;;26.10;65.90;;;;;;5009785;28;20033;-80
2023/12/07 07:37:12;;;;;;;20.13;4.10;;;26.00;66.00;;;;;;5009755;28;20089;-79
2023/12/07 07:39:40;;;;;;;12.70;3.17;;;26.00;66.10;;;;;;5013917;28;20026;-77
2023/12/07 07:42:07;;;;;;;14.75;3.50;;;26.00;65.90;;;;;;5015926;28;20022;-77
2023/12/07 07:44:35;;;;;;;17.45;3.65;;;25.90;66.30;;;;;;5016086;28;20136;-82
2023/12/07 07:47:06;;;;;;;11.35;3.50;;;25.80;66.40;;;;;;5015744;28;20057;-80
2023/12/07 07:49:33;;;;;;;17.13;3.85;;;25.80;66.50;;;;;;5015816;28;20030;-84
2023/12/07 07:52:01;;;;;;;13.50;3.65;;;25.70;66.70;;;;;;5014404;28;20385;-77
2023/12/07 07:54:28;;;;;;;16.00;4.10;;;25.70;66.80;;;;;;5015820;28;20100;-82
2023/12/07 07:56:55;;;;;;;12.52;3.70;;;25.60;66.80;;;;;;5015656;28;20105;-86
2023/12/07 07:59:23;;;;;;;16.45;4.57;;;25.60;67.10;;;;;;5015695;28;20354;-79
2023/12/07 08:01:50;;;;;;;13.23;3.83;;;25.60;67.30;;;;;;5014045;28;20029;-86
2023/12/07 08:04:23;;;;;;;14.25;3.55;;;25.60;67.50;;;;;;5014175;28;20054;-86
2023/12/07 08:06:50;;;;;;;16.85;4.13;;;25.50;67.60;;;;;;5015495;28;20022;-85
2023/12/07 08:09:18;;;;;;;16.85;4.32;;;25.50;67.50;;;;;;5002939;28;20038;-86
2023/12/07 08:11:45;;;;;;;18.10;3.95;;;25.50;67.70;;;;;;4995227;28;20472;-76
2023/12/07 08:14:15;;;;;;;19.33;4.68;;;25.40;67.60;;;;;;5002389;28;20022;-83
2023/12/07 08:16:46;;;;;;;12.18;2.78;;;25.40;67.70;;;;;;5010173;28;20407;-79
2023/12/07 08:19:14;;;;;;;17.95;3.60;;;25.40;67.80;;;;;;5016709;28;20018;-82
2023/12/07 08:21:42;;;;;;;11.77;4.00;;;25.40;67.80;;;;;;5022111;28;20042;-76
2023/12/07 08:24:09;;;;;;;18.17;4.15;;;25.30;68.00;;;;;;4995198;28;20394;-77
2023/12/07 08:26:37;;;;;;;10.38;3.10;;;25.30;68.10;;;;;;4995530;28;20034;-76
2023/12/07 08:29:04;;;;;;;12.73;3.60;;;25.40;68.10;;;;;;4997598;28;20033;-85
2023/12/07 08:31:31;;;;;;;14.65;3.92;;;25.30;68.20;;;;;;5009194;28;20104;-85
2023/12/07 08:34:00;;;;;;;16.20;3.88;;;25.30;68.20;;;;;;5014514;28;20033;-81
2023/12/07 08:36:27;;;;;;;13.38;4.20;;;25.30;68.30;;;;;;5014625;28;20376;-85
2023/12/07 08:38:55;;;;;;;13.32;3.92;;;25.20;68.60;;;;;;5014824;28;20290;-85
2023/12/07 08:41:23;;;;;;;11.93;3.33;;;25.20;68.80;;;;;;5014423;28;20481;-84
2023/12/07 08:43:51;;;;;;;12.95;3.45;;;25.10;68.80;;;;;;5014241;28;20158;-82
2023/12/07 08:46:18;;;;;;;15.57;3.45;;;25.10;68.80;;;;;;5014050;28;20030;-80
2023/12/07 08:48:45;;;;;;;14.73;4.20;;;25.00;69.10;;;;;;4995005;28;20041;-80
2023/12/07 08:51:13;;;;;;;14.32;4.25;;;25.00;69.10;;;;;;5009533;28;20022;-85
2023/12/07 08:53:40;;;;;;;17.42;3.97;;;25.00;69.10;;;;;;4994978;28;20073;-85
2023/12/07 08:56:12;;;;;;;15.98;4.82;;;24.90;69.20;;;;;;4994559;28;20474;-84
2023/12/07 08:58:41;;;;;;;16.23;4.47;;;24.90;69.30;;;;;;4994660;28;20033;-85
2023/12/07 09:01:08;;;;;;;16.20;4.25;;;24.80;69.40;;;;;;4994696;28;20101;-84
2023/12/07 09:03:37;;;;;;;15.85;4.32;;;24.80;69.70;;;;;;4994225;28;20437;-84
2023/12/07 09:06:06;;;;;;;18.65;4.50;;;24.80;69.80;;;;;;4994266;28;20042;-85
2023/12/07 09:08:33;;;;;;;17.17;4.43;;;24.70;69.90;;;;;;4994498;28;20109;-84
2023/12/07 09:11:01;;;;;;;12.32;4.55;;;24.70;70.00;;;;;;4994280;28;20023;-85
2023/12/07 09:13:29;;;;;;;17.60;4.30;;;24.70;70.10;;;;;;4994356;28;20061;-83
2023/12/07 09:15:56;;;;;;;10.88;3.70;;;24.60;70.10;;;;;;4994152;28;20026;-81
2023/12/07 09:18:25;;;;;;;19.92;4.15;;;24.60;70.20;;;;;;4994246;28;20030;-85
2023/12/07 09:20:52;;;;;;;18.02;4.00;;;24.60;70.40;;;;;;4994337;28;20070;-78
2023/12/07 09:23:19;;;;;;;16.70;4.78;;;24.60;70.30;;;;;;4994445;28;20073;-81
2023/12/07 09:25:47;;;;;;;20.23;4.97;;;24.50;70.40;;;;;;4993920;28;20042;-79
2023/12/07 09:28:14;;;;;;;13.93;4.18;;;24.50;70.70;;;;;;4994195;28;20018;-83
2023/12/07 09:30:42;;;;;;;13.68;3.53;;;24.50;70.70;;;;;;4994154;28;20541;-83
2023/12/07 09:33:09;;;;;;;15.20;3.72;;;24.50;70.60;;;;;;4994023;28;20050;-82
2023/12/07 09:35:36;;;;;;;16.33;4.22;;;24.40;70.80;;;;;;4993940;28;20069;-77
2023/12/07 09:38:04;;;;;;;13.77;3.42;;;24.40;70.70;;;;;;4994161;28;20033;-83
2023/12/07 09:40:32;;;;;;;13.68;3.35;;;24.30;70.90;;;;;;4993963;28;20069;-83
2023/12/07 09:42:59;;;;;;;12.68;3.72;;;24.30;71.40;;;;;;4993891;28;20184;-79
2023/12/07 09:45:27;;;;;;;13.38;3.42;;;24.30;71.60;;;;;;4993731;28;20053;-82
2023/12/07 09:47:55;;;;;;;12.27;3.28;;;24.30;71.60;;;;;;4993624;28;20482;-85
2023/12/07 09:50:24;;;;;;;18.08;4.35;;;24.20;71.80;;;;;;4993945;28;20034;-85
2023/12/07 09:52:54;;;;;;;16.08;4.65;;;24.20;71.80;;;;;;4993849;28;20477;-83
2023/12/07 09:55:22;;;;;;;16.20;4.28;;;24.20;71.90;;;;;;4994028;28;20457;-85
2023/12/07 09:57:50;;;;;;;16.10;4.13;;;24.20;71.60;;;;;;4993816;28;20109;-84
2023/12/07 10:00:19;;;;;;;18.05;4.55;;;24.20;71.90;;;;;;4993686;28;20022;-82
2023/12/07 10:02:47;;;;;;;20.17;4.88;;;24.20;71.90;;;;;;4991609;28;20027;-82
2023/12/07 10:05:19;;;;;;;15.95;3.58;;;24.10;72.10;;;;;;4993769;28;20031;-83
2023/12/07 10:07:50;;;;;;;15.45;3.80;;;24.10;72.20;;;;;;4993681;28;20389;-77
2023/12/07 10:10:19;;;;;;;16.90;4.53;;;24.10;72.00;;;;;;4994150;28;20022;-83
2023/12/07 10:12:53;;;;;;;11.13;4.10;;;24.10;71.70;;;;;;4993973;28;20092;-77
2023/12/07 10:15:22;;;;;;;12.55;3.28;;;24.10;71.80;;;;;;4993454;28;20058;-83
2023/12/07 10:17:58;;;;;;;11.15;3.22;;;24.00;72.10;;;;;;4993211;28;20022;-80
2023/12/07 10:20:29;;;;;;;13.57;3.47;;;24.00;72.40;;;;;;4993801;28;20030;-83
2023/12/07 10:23:04;;;;;;;15.45;3.60;;;24.00;72.40;;;;;;4996988;28;20026;-76
2023/12/07 10:25:32;;;;;;;13.50;3.35;;;24.00;72.30;;;;;;5001351;28;20070;-84
2023/12/07 10:28:00;;;;;;;14.75;3.58;;;24.00;72.50;;;;;;5011425;28;20025;-78
2023/12/07 10:30:28;;;;;;;12.52;3.10;;;23.90;72.50;;;;;;5011749;28;20037;-82
2023/12/07 10:32:56;;;;;;;15.18;3.63;;;23.90;72.80;;;;;;5010822;28;20060;-81
2023/12/07 10:35:23;;;;;;;20.05;4.22;;;23.80;72.90;;;;;;5013390;28;20354;-78
2023/12/07 10:37:50;;;;;;;16.48;4.25;;;23.80;73.20;;;;;;5014351;28;20058;-76
2023/12/07 10:40:20;;;;;;;15.25;3.33;;;23.80;73.30;;;;;;5008083;28;20093;-85
2023/12/07 10:42:49;;;;;;;15.52;3.10;;;23.90;73.20;;;;;;5020093;28;20030;-85
2023/12/07 10:45:17;;;;;;;18.63;4.05;;;23.80;73.30;;;;;;5024502;28;20516;-80
2023/12/07 10:47:46;;;;;;;17.67;3.70;;;24.00;72.70;;;;;;5011639;28;20030;-83
2023/12/07 10:50:22;;;;;;;15.48;4.00;;;23.90;72.60;;;;;;5016461;28;20022;-84
2023/12/07 10:52:55;;;;;;;16.40;3.58;;;23.90;72.60;;;;;;5013753;28;20117;-85
2023/12/07 10:55:29;;;;;;;11.00;3.15;;;23.80;72.80;;;;;;5013464;28;20022;-80
2023/12/07 10:57:57;;;;;;;13.77;3.17;;;23.80;73.10;;;;;;5011823;28;20377;-77
2023/12/07 11:00:27;;;;;;;14.88;3.55;;;23.80;73.20;;;;;;5012628;28;20489;-76
2023/12/07 11:02:55;;;;;;;14.60;3.67;;;23.70;73.30;;;;;;5006847;28;20021;-81
2023/12/07 11:05:22;;;;;;;15.73;3.45;;;23.70;73.50;;;;;;5013295;28;20485;-77
2023/12/07 11:08:10;;;;;;;17.13;3.50;;;23.70;73.50;;;;;;5000732;28;20038;-76
2023/12/07 11:11:14;;;;;;;16.55;3.47;;;23.70;73.60;;;;;;5014155;28;20101;-75
2023/12/07 11:13:57;;;;;;;12.68;3.47;;;23.70;74.00;;;;;;5013628;28;20026;-76
2023/12/07 11:16:37;;;;;;;12.23;3.17;;;23.70;74.10;;;;;;5016823;28;20030;-85
2023/12/07 11:19:05;;;;;;;15.68;3.35;;;23.70;74.10;;;;;;5016190;28;20486;-83
2023/12/07 11:21:32;;;;;;;16.45;3.30;;;23.70;74.20;;;;;;5014073;28;20022;-74
2023/12/07 11:24:04;;;;;;;17.63;4.03;;;23.70;74.30;;;;;;5020867;28;20065;-77
2023/12/07 11:26:31;;;;;;;15.27;3.45;;;23.70;74.00;;;;;;5014263;28;20065;-85
2023/12/07 11:28:59;;;;;;;13.07;2.70;;;23.70;74.20;;;;;;5015444;28;20026;-83
2023/12/07 11:31:28;;;;;;;12.73;2.88;;;23.70;74.30;;;;;;5015561;28;20455;-83
2023/12/07 11:33:56;;;;;;;12.32;3.10;;;23.70;74.30;;;;;;5013474;28;20072;-79
2023/12/07 11:36:24;;;;;;;17.05;3.20;;;23.70;74.20;;;;;;5015049;28;20034;-86
2023/12/07 11:39:14;;;;;;;13.82;3.92;;;23.70;74.20;;;;;;5013350;28;20083;-85
2023/12/07 11:41:45;;;;;;;14.18;3.20;;;23.80;74.40;;;;;;5012420;28;20026;-75
2023/12/07 11:44:12;;;;;;;21.20;4.22;;;23.80;74.10;;;;;;5013791;28;20034;-77
2023/12/07 11:46:40;;;;;;;15.80;3.55;;;23.80;74.00;;;;;;5013837;28;20049;-76
2023/12/07 11:49:10;;;;;;;17.77;3.83;;;23.80;73.90;;;;;;5014462;28;20504;-77
2023/12/07 11:51:38;;;;;;;18.60;3.88;;;23.80;74.00;;;;;;5017465;28;20580;-84
2023/12/07 11:54:08;;;;;;;17.13;3.92;;;23.80;73.90;;;;;;5017668;28;20033;-83
2023/12/07 11:56:35;;;;;;;10.65;3.20;;;23.80;73.90;;;;;;5013932;28;20026;-78
2023/12/07 11:59:02;;;;;;;16.20;3.20;;;23.70;74.00;;;;;;5015391;28;20428;-78
2023/12/07 12:01:30;;;;;;;13.45;3.38;;;23.70;74.00;;;;;;5010373;28;20057;-84
2023/12/07 12:03:57;;;;;;;15.45;3.33;;;23.80;73.80;;;;;;5015321;28;20149;-79
2023/12/07 12:06:27;;;;;;;17.15;3.70;;;23.80;73.90;;;;;;5014152;28;20026;-78
2023/12/07 12:08:56;;;;;;;16.40;3.38;;;23.70;73.80;;;;;;5010650;28;20026;-82
2023/12/07 12:11:23;;;;;;;17.75;3.20;;;23.70;73.90;;;;;;5014613;28;20032;-83
2023/12/07 12:13:50;;;;;;;15.88;3.50;;;23.70;74.00;;;;;;5012147;28;20432;-76
2023/12/07 12:16:18;;;;;;;19.77;3.78;;;23.70;74.10;;;;;;5023488;28;20044;-81
2023/12/07 12:18:45;;;;;;;17.58;4.10;;;23.70;74.20;;;;;;5011791;28;20080;-78
2023/12/07 12:21:13;;;;;;;13.18;2.95;;;23.60;74.30;;;;;;5014314;28;20386;-76
2023/12/07 12:23:41;;;;;;;18.02;3.28;;;23.70;74.40;;;;;;5011235;28;20034;-77
2023/12/07 12:26:10;;;;;;;13.60;3.20;;;23.70;74.30;;;;;;5011217;28;20033;-77
2023/12/07 12:28:42;;;;;;;13.70;3.17;;;23.60;74.40;;;;;;5013730;28;20489;-77
2023/12/07 12:31:11;;;;;;;16.98;3.42;;;23.60;74.40;;;;;;5023819;28;20030;-83
2023/12/07 12:33:39;;;;;;;15.40;3.40;;;23.60;74.60;;;;;;5023082;28;20072;-76
2023/12/07 12:36:10;;;;;;;14.85;3.47;;;23.70;74.50;;;;;;5016693;28;20381;-79
2023/12/07 12:38:39;;;;;;;16.27;3.63;;;23.60;74.40;;;;;;5018759;28;20026;-76
2023/12/07 12:41:07;;;;;;;11.80;3.00;;;23.70;74.40;;;;;;5028286;28;20056;-75
2023/12/07 12:43:34;;;;;;;18.20;3.25;;;23.70;74.60;;;;;;5033109;28;20049;-77
2023/12/07 12:46:02;;;;;;;14.32;3.15;;;23.60;74.80;;;;;;5032057;28;20132;-76